Time;durP1;ratioP1;P1;durP2;ratioP2;P2;SDS_P1;SDS_P2;PMS_P1;PMS_P2;Temp;Humidity;BMP_temperature;BMP_pressure;BME280_temperature;BME280_humidity;BME280_pressure;Samples;Min_cycle;Max_cycle;Signal;HPM_P1;HPM_P2
2021/10/04 00:00:09;;;;;;;19.33;8.68;;;17.90;99.90;;;18.41;73.52;100741.25;5065119;28;20212;-69
2021/10/04 00:02:40;;;;;;;19.20;8.88;;;17.90;99.90;;;18.40;73.42;100739.53;5060206;28;20211;-70
2021/10/04 00:05:08;;;;;;;17.75;8.82;;;17.80;99.90;;;18.38;73.67;100738.78;5071237;28;20185;-69
2021/10/04 00:07:36;;;;;;;17.70;8.95;;;17.80;99.90;;;18.38;73.46;100748.53;5076440;28;20245;-69
2021/10/04 00:10:03;;;;;;;18.65;8.45;;;17.80;99.90;;;18.37;73.71;100749.50;5074946;28;20184;-69
2021/10/04 00:12:33;;;;;;;20.30;8.57;;;17.80;99.90;;;18.36;73.92;100756.59;5067976;28;20210;-69
2021/10/04 00:15:00;;;;;;;17.08;8.40;;;17.80;99.90;;;18.36;73.90;100761.03;5070515;28;20736;-71
2021/10/04 00:17:27;;;;;;;16.48;8.63;;;17.80;99.90;;;18.35;73.83;100757.53;5066371;28;20197;-69
2021/10/04 00:19:55;;;;;;;19.10;8.25;;;17.80;99.90;;;18.36;74.18;100769.00;5076666;28;20262;-69
2021/10/04 00:22:22;;;;;;;15.15;8.00;;;17.80;99.90;;;18.35;74.09;100775.25;5074033;28;20223;-68
2021/10/04 00:24:49;;;;;;;16.67;8.13;;;17.80;99.90;;;18.35;74.27;100767.31;5074153;28;20548;-69
2021/10/04 00:27:17;;;;;;;15.90;7.88;;;17.80;99.90;;;18.36;74.44;100774.28;5056984;28;20232;-70
2021/10/04 00:29:44;;;;;;;18.67;8.13;;;17.80;99.90;;;18.36;74.45;100774.28;5075252;28;20592;-70
2021/10/04 00:32:11;;;;;;;16.17;7.75;;;17.80;99.90;;;18.36;74.28;100775.16;5072083;28;20193;-69
2021/10/04 00:34:38;;;;;;;14.75;7.53;;;17.80;99.90;;;18.35;74.73;100783.22;5078809;28;20704;-70
2021/10/04 00:37:07;;;;;;;16.23;8.25;;;17.80;99.90;;;18.34;74.95;100782.34;5076491;28;20196;-69
2021/10/04 00:39:35;;;;;;;16.58;7.90;;;17.80;99.90;;;18.34;74.99;100781.50;5083709;28;20269;-69
2021/10/04 00:42:03;;;;;;;14.95;8.02;;;17.80;99.90;;;18.34;74.96;100776.19;5078190;28;20215;-70
2021/10/04 00:44:30;;;;;;;14.07;7.50;;;17.80;99.90;;;18.32;75.37;100773.66;5073507;28;20191;-69
2021/10/04 00:46:58;;;;;;;16.17;7.45;;;17.80;99.90;;;18.32;75.40;100775.47;5077815;28;20261;-70
2021/10/04 00:49:25;;;;;;;15.00;7.30;;;17.80;99.90;;;18.31;75.80;100777.28;5080951;28;20192;-69
2021/10/04 00:51:53;;;;;;;16.30;7.70;;;17.80;99.90;;;18.30;75.73;100780.03;5076193;28;20179;-68
2021/10/04 00:54:22;;;;;;;16.52;7.53;;;17.80;99.90;;;18.29;75.74;100779.16;5076647;28;20265;-68
2021/10/04 00:56:49;;;;;;;16.42;7.13;;;17.70;99.90;;;18.29;76.23;100786.25;5083036;28;20188;-69
2021/10/04 00:59:17;;;;;;;14.88;7.13;;;17.70;99.90;;;18.29;75.87;100787.13;5073827;28;20242;-69
2021/10/04 01:01:44;;;;;;;17.50;7.47;;;17.70;99.90;;;18.29;76.16;100792.41;5072381;28;20186;-69
2021/10/04 01:04:11;;;;;;;15.73;7.68;;;17.70;99.90;;;18.29;76.48;100794.22;5066118;28;20789;-70
2021/10/04 01:06:38;;;;;;;16.13;7.53;;;17.70;99.90;;;18.24;76.75;100791.88;5069542;28;20192;-70
2021/10/04 01:09:04;;;;;;;15.45;6.95;;;17.60;99.90;;;18.20;77.41;100803.63;5071129;28;20192;-69
2021/10/04 01:11:33;;;;;;;14.43;6.95;;;17.60;99.90;;;18.16;77.68;100812.75;5083956;28;20218;-70
2021/10/04 01:14:00;;;;;;;16.75;7.18;;;17.60;99.90;;;18.11;78.31;100803.41;5066923;28;20635;-70
2021/10/04 01:16:26;;;;;;;13.18;6.57;;;17.50;99.90;;;18.08;78.52;100806.28;5069709;28;20188;-69
2021/10/04 01:18:53;;;;;;;13.25;6.15;;;17.50;99.90;;;18.05;78.97;100807.31;5063569;28;20257;-70
2021/10/04 01:21:21;;;;;;;16.65;6.95;;;17.50;99.90;;;18.05;78.96;100806.47;5071027;28;20196;-70
2021/10/04 01:23:48;;;;;;;14.65;6.35;;;17.40;99.90;;;18.05;79.52;100814.44;5066657;28;20209;-69
2021/10/04 01:26:15;;;;;;;12.43;5.63;;;17.50;99.90;;;18.03;79.86;100808.38;5067993;28;20238;-70
2021/10/04 01:28:42;;;;;;;12.63;6.10;;;17.50;99.90;;;18.03;79.60;100818.97;5071636;28;20270;-70
2021/10/04 01:31:08;;;;;;;12.55;5.53;;;17.50;99.90;;;18.03;80.02;100825.13;5063312;28;20197;-70
2021/10/04 01:33:35;;;;;;;10.20;4.18;;;17.50;99.90;;;18.02;80.31;100836.66;5064474;28;20241;-69
2021/10/04 01:36:03;;;;;;;9.07;3.88;;;17.50;99.90;;;18.03;80.20;100829.56;5070470;28;20196;-69
2021/10/04 01:38:31;;;;;;;9.02;4.25;;;17.50;99.90;;;18.03;80.21;100840.16;5070337;28;20285;-70
2021/10/04 01:40:58;;;;;;;9.55;3.72;;;17.50;99.90;;;18.02;80.32;100835.84;5069117;28;20341;-70
2021/10/04 01:43:25;;;;;;;8.85;3.30;;;17.50;99.90;;;18.01;79.94;100847.34;5067628;28;20219;-69
2021/10/04 01:45:52;;;;;;;9.38;3.15;;;17.40;99.90;;;17.98;80.47;100853.72;5068597;28;20200;-71
2021/10/04 01:48:18;;;;;;;9.45;3.28;;;17.40;99.90;;;17.97;80.33;100861.75;5061694;28;20246;-69
2021/10/04 01:50:45;;;;;;;8.88;3.47;;;17.40;99.90;;;17.95;80.68;100858.38;5063727;28;20242;-70
2021/10/04 01:53:12;;;;;;;9.82;3.22;;;17.30;99.90;;;17.91;81.02;100870.97;5068625;28;20234;-69
2021/10/04 01:55:40;;;;;;;6.40;2.63;;;17.30;99.90;;;17.89;80.78;100877.28;5058601;28;20670;-69
2021/10/04 01:58:07;;;;;;;7.60;2.50;;;17.20;99.90;;;17.85;80.74;100889.06;5063172;28;20668;-69
2021/10/04 02:00:36;;;;;;;6.97;2.55;;;17.20;99.90;;;17.83;80.92;100886.50;5061324;28;20211;-68
2021/10/04 02:03:03;;;;;;;6.05;2.00;;;17.20;99.90;;;17.81;80.53;100892.84;5065544;28;20261;-69
2021/10/04 02:05:32;;;;;;;7.38;1.98;;;17.10;99.90;;;17.76;80.57;100895.78;5065827;28;20199;-69
2021/10/04 02:08:00;;;;;;;5.18;1.80;;;17.10;99.90;;;17.75;80.35;100898.53;5057268;28;20688;-70
2021/10/04 02:10:31;;;;;;;7.65;1.95;;;17.10;99.90;;;17.73;80.11;100911.03;5062006;28;20703;-70
2021/10/04 02:13:05;;;;;;;6.25;1.88;;;17.00;99.90;;;17.72;80.18;100906.66;5070709;28;20238;-68
2021/10/04 02:15:32;;;;;;;3.38;1.10;;;17.00;99.90;;;17.69;80.26;100909.50;5069932;28;20192;-69
2021/10/04 02:18:00;;;;;;;4.35;1.40;;;17.00;99.90;;;17.65;80.28;100908.00;5059719;28;20189;-70
2021/10/04 02:20:30;;;;;;;4.40;1.50;;;17.00;99.90;;;17.62;80.35;100902.88;5085631;28;20765;-71
2021/10/04 02:23:04;;;;;;;3.08;1.17;;;16.90;99.90;;;17.58;80.44;100904.91;5057769;28;20220;-70
2021/10/04 02:25:31;;;;;;;4.03;1.30;;;16.90;99.90;;;17.55;80.40;100904.25;5066904;28;20247;-70
2021/10/04 02:27:59;;;;;;;3.97;1.30;;;16.90;99.90;;;17.53;80.78;100915.75;5059904;28;20238;-68
2021/10/04 02:30:26;;;;;;;3.42;1.35;;;16.80;99.90;;;17.53;80.63;100923.72;5061504;28;20203;-70
2021/10/04 02:32:54;;;;;;;3.08;1.30;;;16.80;99.90;;;17.53;80.55;100931.66;5074733;28;20243;-71
2021/10/04 02:35:22;;;;;;;5.53;1.30;;;16.80;99.90;;;17.50;80.47;100931.84;5068513;28;20200;-69
2021/10/04 02:37:51;;;;;;;3.65;1.40;;;16.80;99.90;;;17.49;80.93;100931.94;5062896;28;20625;-69
2021/10/04 02:40:18;;;;;;;3.75;1.40;;;16.80;99.90;;;17.45;80.82;100928.63;5074608;28;20216;-69
2021/10/04 02:42:46;;;;;;;3.30;1.10;;;16.80;99.90;;;17.45;81.21;100936.56;5071921;28;20229;-68
2021/10/04 02:45:17;;;;;;;3.60;1.10;;;16.80;99.90;;;17.43;81.30;100929.66;5071234;28;20230;-68
2021/10/04 02:47:47;;;;;;;4.00;1.40;;;16.80;99.90;;;17.42;81.42;100934.09;5057178;28;20696;-69
2021/10/04 02:50:17;;;;;;;2.50;0.90;;;16.80;99.90;;;17.42;81.70;100935.88;5059653;28;20192;-69
2021/10/04 02:52:44;;;;;;;3.88;1.33;;;16.80;99.90;;;17.42;81.53;100938.53;5058242;28;20211;-71
2021/10/04 02:55:11;;;;;;;3.47;1.20;;;16.80;99.90;;;17.40;81.52;100938.63;5061424;28;20250;-69
2021/10/04 02:57:39;;;;;;;2.60;1.08;;;16.80;99.90;;;17.38;81.90;100945.81;5069768;28;20249;-70
2021/10/04 03:00:10;;;;;;;4.63;1.40;;;16.80;99.90;;;17.39;81.82;100944.88;5063158;28;20257;-69
2021/10/04 03:02:38;;;;;;;4.18;1.40;;;16.80;99.90;;;17.40;81.80;100951.84;5077522;28;20199;-70
2021/10/04 03:05:06;;;;;;;4.43;1.45;;;16.80;99.90;;;17.40;81.83;100958.94;5058275;28;20191;-69
2021/10/04 03:07:32;;;;;;;3.20;1.23;;;16.90;99.90;;;17.38;82.14;100956.38;5056712;28;20204;-70
2021/10/04 03:09:59;;;;;;;3.45;1.30;;;16.90;99.90;;;17.35;81.98;100969.81;5057629;28;20192;-69
2021/10/04 03:12:26;;;;;;;4.05;1.30;;;16.80;99.90;;;17.33;82.14;100968.22;5074733;28;20196;-70
2021/10/04 03:14:53;;;;;;;3.45;1.23;;;16.80;99.90;;;17.29;82.01;100974.63;5055436;28;20193;-70
2021/10/04 03:17:20;;;;;;;2.72;1.20;;;16.80;99.90;;;17.26;82.20;100970.38;5059588;28;20192;-71
2021/10/04 03:19:48;;;;;;;5.18;1.20;;;16.80;99.90;;;17.23;82.22;100970.56;5074271;28;20321;-70
2021/10/04 03:22:15;;;;;;;3.55;1.10;;;16.80;99.90;;;17.21;82.35;100975.09;5067320;28;20685;-70
2021/10/04 03:24:42;;;;;;;2.60;1.02;;;16.70;99.90;;;17.19;82.44;100981.44;5060849;28;20215;-70
2021/10/04 03:27:09;;;;;;;4.50;1.40;;;16.70;99.90;;;17.15;82.54;100980.75;5058769;28;20204;-69
2021/10/04 03:29:36;;;;;;;3.83;1.25;;;16.60;99.90;;;17.12;82.50;100988.88;5065831;28;20188;-70
2021/10/04 03:32:04;;;;;;;6.63;1.73;;;16.60;99.90;;;17.11;82.38;100995.09;5068994;28;20192;-70
2021/10/04 03:34:30;;;;;;;5.20;1.60;;;16.60;99.90;;;17.07;82.06;101005.97;5063390;28;20215;-70
2021/10/04 03:37:00;;;;;;;3.70;1.13;;;16.50;99.90;;;17.03;82.17;101007.09;5059297;28;20196;-69
2021/10/04 03:39:27;;;;;;;2.97;1.25;;;16.50;99.90;;;17.00;82.58;101012.56;5061726;28;20207;-70
2021/10/04 03:41:54;;;;;;;4.88;1.60;;;16.40;99.90;;;16.97;82.50;101016.25;5068917;28;20195;-70
2021/10/04 03:44:21;;;;;;;3.47;1.33;;;16.50;99.90;;;16.93;82.43;101022.66;5066114;28;22113;-71
2021/10/04 03:46:48;;;;;;;4.60;1.02;;;16.40;99.90;;;16.86;82.83;101029.22;5056067;28;20196;-71
2021/10/04 03:49:14;;;;;;;3.97;1.45;;;16.30;99.90;;;16.80;82.90;101029.59;5061726;28;20188;-72
2021/10/04 03:51:41;;;;;;;3.78;1.23;;;16.20;99.90;;;16.72;83.16;101033.63;5062192;28;20200;-73
2021/10/04 03:54:09;;;;;;;3.47;0.90;;;16.10;99.90;;;16.60;83.07;101029.88;5058429;28;20262;-71
2021/10/04 03:56:36;;;;;;;2.90;1.10;;;16.00;99.90;;;16.50;83.44;101031.34;5067047;28;20216;-71
2021/10/04 03:59:03;;;;;;;3.35;1.10;;;15.90;99.90;;;16.43;83.82;101032.59;5063095;28;20196;-71
2021/10/04 04:01:30;;;;;;;1.98;0.90;;;15.80;99.90;;;16.36;83.82;101028.59;5061001;28;20262;-73
2021/10/04 04:03:56;;;;;;;0.95;0.77;;;15.70;99.90;;;16.30;83.76;101034.22;5070184;28;20230;-71
2021/10/04 04:06:23;;;;;;;3.22;0.90;;;15.70;99.90;;;16.24;83.83;101039.88;5069315;28;20207;-72
2021/10/04 04:08:50;;;;;;;2.45;0.80;;;15.60;99.90;;;16.18;83.69;101043.69;5069361;28;20196;-71
2021/10/04 04:11:18;;;;;;;1.90;0.80;;;15.50;99.90;;;16.14;83.65;101046.59;5064506;28;20200;-72
2021/10/04 04:13:45;;;;;;;2.00;0.73;;;15.50;99.90;;;16.09;83.64;101048.63;5068560;28;20723;-71
2021/10/04 04:16:12;;;;;;;1.55;0.73;;;15.50;99.90;;;16.07;84.11;101058.44;5057640;28;20739;-72
2021/10/04 04:18:38;;;;;;;1.70;0.80;;;15.40;99.90;;;16.04;83.77;101063.88;5064058;28;20237;-71
2021/10/04 04:21:05;;;;;;;2.60;0.70;;;15.40;99.90;;;16.02;83.87;101071.88;5064700;28;20204;-72
2021/10/04 04:23:32;;;;;;;1.85;0.60;;;15.40;99.90;;;16.00;83.74;101075.53;5065239;28;20347;-71
2021/10/04 04:25:59;;;;;;;3.25;0.80;;;15.30;99.90;;;15.97;83.41;101067.78;5067224;28;20207;-71
2021/10/04 04:28:27;;;;;;;3.25;1.10;;;15.40;99.90;;;15.98;83.29;101069.47;5068319;28;20241;-71
2021/10/04 04:30:54;;;;;;;1.27;0.70;;;15.40;99.90;;;15.96;83.27;101072.19;5068697;28;20203;-73
2021/10/04 04:33:21;;;;;;;2.33;0.68;;;15.40;99.90;;;15.94;83.20;101083.78;5067374;28;20270;-72
2021/10/04 04:35:48;;;;;;;1.80;0.70;;;15.40;99.90;;;15.94;83.18;101091.72;5071060;28;20198;-72
2021/10/04 04:38:15;;;;;;;1.67;0.70;;;15.40;99.90;;;15.94;83.25;101097.81;5070885;28;20227;-73
2021/10/04 04:40:42;;;;;;;4.97;0.68;;;15.40;99.90;;;15.96;83.00;101100.38;5069506;28;20577;-72
2021/10/04 04:43:09;;;;;;;2.50;1.17;;;15.40;99.90;;;15.98;82.97;101103.81;5064683;28;20223;-72
2021/10/04 04:45:37;;;;;;;3.78;0.73;;;15.50;99.90;;;16.01;83.07;101090.44;5065084;28;20196;-72
2021/10/04 04:48:04;;;;;;;3.15;0.98;;;15.50;99.90;;;16.03;83.01;101093.84;5065294;28;20195;-72
2021/10/04 04:50:31;;;;;;;5.15;0.80;;;15.50;99.90;;;16.02;83.08;101098.28;5068881;28;20184;-73
2021/10/04 04:52:58;;;;;;;1.80;0.70;;;15.50;99.90;;;16.03;82.88;101081.50;5066902;28;20235;-70
2021/10/04 04:55:25;;;;;;;2.33;0.90;;;15.50;99.90;;;16.04;82.54;101095.56;5069540;28;20726;-71
2021/10/04 04:57:52;;;;;;;2.45;0.77;;;15.50;99.90;;;16.03;82.72;101121.13;5066101;28;20193;-72
2021/10/04 05:00:19;;;;;;;2.58;0.90;;;15.50;99.90;;;16.02;82.80;101129.97;5067787;28;20556;-71
2021/10/04 05:02:48;;;;;;;2.30;0.68;;;15.50;99.90;;;16.04;82.52;101129.91;5065273;28;20243;-71
2021/10/04 05:05:18;;;;;;;2.60;1.10;;;15.50;99.90;;;16.05;82.76;101131.59;5065928;28;20203;-72
2021/10/04 05:07:45;;;;;;;2.75;0.70;;;15.50;99.90;;;16.07;82.71;101141.16;5068128;28;20200;-71
2021/10/04 05:10:13;;;;;;;3.40;1.00;;;15.50;99.90;;;16.08;81.97;101144.63;5068195;28;20607;-70
2021/10/04 05:12:40;;;;;;;3.53;1.10;;;15.60;99.90;;;16.08;82.13;101144.63;5064317;28;20234;-72
2021/10/04 05:15:08;;;;;;;2.90;0.80;;;15.60;99.90;;;16.09;81.91;101147.19;5063849;28;20192;-71
2021/10/04 05:17:35;;;;;;;2.20;0.88;;;15.60;99.90;;;16.08;82.10;101147.25;5065480;28;20196;-72
2021/10/04 05:20:04;;;;;;;4.57;1.00;;;15.60;99.90;;;16.10;81.97;101145.41;5069204;28;20192;-71
2021/10/04 05:22:31;;;;;;;2.83;0.93;;;15.60;99.90;;;16.13;81.90;101155.78;5053580;28;20680;-70
2021/10/04 05:24:58;;;;;;;2.67;1.10;;;15.60;99.90;;;16.12;81.61;101151.47;5069907;28;20192;-72
2021/10/04 05:27:24;;;;;;;1.88;0.70;;;15.60;99.90;;;16.13;81.31;101158.44;5069346;28;20745;-71
2021/10/04 05:29:51;;;;;;;1.80;0.70;;;15.60;99.90;;;16.12;80.97;101162.88;5069073;28;20188;-72
2021/10/04 05:32:18;;;;;;;3.15;0.90;;;15.60;99.90;;;16.10;81.17;101156.81;5065931;28;20196;-72
2021/10/04 05:34:45;;;;;;;3.83;0.82;;;15.60;99.90;;;16.11;81.20;101152.38;5060227;28;20219;-72
2021/10/04 05:37:13;;;;;;;3.90;1.05;;;15.60;99.90;;;16.10;80.95;101158.59;5069227;28;20199;-72
2021/10/04 05:39:40;;;;;;;14.82;4.43;;;15.60;99.90;;;16.08;80.96;101160.47;5072670;28;20196;-71
2021/10/04 05:42:07;;;;;;;16.50;6.22;;;15.60;99.90;;;16.08;80.88;101144.63;5068658;28;20227;-71
2021/10/04 05:44:34;;;;;;;8.50;2.33;;;15.60;99.90;;;16.07;80.89;101148.22;5063243;28;20692;-72
2021/10/04 05:47:01;;;;;;;7.85;2.00;;;15.60;99.90;;;16.07;80.89;101164.06;5059402;28;20246;-72
2021/10/04 05:49:28;;;;;;;6.38;1.75;;;15.60;99.90;;;16.06;80.60;101162.31;5065925;28;20204;-71
2021/10/04 05:51:55;;;;;;;6.88;2.33;;;15.60;99.90;;;16.05;80.55;101177.34;5059195;28;20200;-71
2021/10/04 05:54:25;;;;;;;5.53;1.63;;;15.60;99.90;;;16.04;80.86;101195.91;5068286;28;20257;-71
2021/10/04 05:56:52;;;;;;;11.77;3.00;;;15.60;99.90;;;16.03;80.38;101189.75;5073601;28;20192;-71
2021/10/04 05:59:18;;;;;;;5.22;1.63;;;15.60;99.90;;;16.04;80.58;101193.28;5083571;28;20188;-72
2021/10/04 06:01:45;;;;;;;5.80;1.52;;;15.60;99.90;;;16.04;80.51;101185.34;5066057;28;20715;-73
2021/10/04 06:04:12;;;;;;;7.07;1.42;;;15.60;99.90;;;16.06;80.38;101188.72;5066278;28;20219;-71
2021/10/04 06:06:39;;;;;;;5.22;1.50;;;15.50;99.90;;;16.05;80.74;101177.34;5067875;28;20200;-72
2021/10/04 06:09:05;;;;;;;4.60;1.50;;;15.60;99.90;;;16.05;80.26;101181.75;5066381;28;20192;-70
2021/10/04 06:11:34;;;;;;;4.32;1.20;;;15.50;99.90;;;16.04;80.61;101175.63;5069592;28;20199;-73
2021/10/04 06:14:01;;;;;;;4.10;1.27;;;15.60;99.90;;;16.08;80.30;101176.31;5065098;28;20227;-72
2021/10/04 06:16:27;;;;;;;5.35;1.40;;;15.60;99.90;;;16.09;80.13;101183.31;5060949;28;20665;-72
2021/10/04 06:18:54;;;;;;;4.97;1.40;;;15.60;99.90;;;16.06;80.11;101186.09;5060457;28;20219;-70
2021/10/04 06:21:21;;;;;;;6.35;1.40;;;15.60;99.90;;;16.05;80.14;101194.97;5060113;28;20209;-71
2021/10/04 06:23:48;;;;;;;5.85;1.52;;;15.60;99.90;;;16.05;80.33;101201.09;5060949;28;20262;-71
2021/10/04 06:26:14;;;;;;;5.32;1.70;;;15.60;99.90;;;16.06;80.23;101194.00;5063202;28;20185;-71
2021/10/04 06:28:43;;;;;;;6.57;1.50;;;15.60;99.90;;;16.07;80.36;101195.75;5069164;28;20203;-71
2021/10/04 06:31:10;;;;;;;7.75;1.63;;;15.60;99.90;;;16.08;80.13;101202.72;5063466;28;20200;-71
2021/10/04 06:33:36;;;;;;;7.82;1.60;;;15.60;99.90;;;16.07;80.30;101211.59;5064621;28;20227;-71
2021/10/04 06:36:04;;;;;;;4.93;1.25;;;15.60;99.90;;;16.06;80.33;101209.84;5066557;28;20188;-69
2021/10/04 06:38:32;;;;;;;3.65;1.30;;;15.60;99.90;;;16.06;80.32;101226.56;5059612;28;20328;-70
2021/10/04 06:40:58;;;;;;;5.47;1.48;;;15.60;99.90;;;16.07;80.55;101235.34;5063759;28;20258;-70
2021/10/04 06:43:25;;;;;;;6.82;1.25;;;15.60;99.90;;;16.06;80.18;101230.97;5059447;28;20221;-70
2021/10/04 06:45:53;;;;;;;4.10;1.35;;;15.60;99.90;;;16.05;80.64;101240.72;5063159;28;20192;-71
2021/10/04 06:48:20;;;;;;;4.18;0.95;;;15.60;99.90;;;16.05;80.37;101245.13;5070601;28;20583;-72
2021/10/04 06:50:47;;;;;;;7.40;1.50;;;15.50;99.90;;;16.02;80.37;101254.09;5065838;28;20208;-71
2021/10/04 06:53:13;;;;;;;6.03;1.60;;;15.50;99.90;;;16.01;80.31;101249.72;5064898;28;20212;-71
2021/10/04 06:55:40;;;;;;;4.78;1.35;;;15.50;99.90;;;15.98;80.28;101241.09;5066629;28;20661;-72
2021/10/04 06:58:07;;;;;;;5.55;1.30;;;15.40;99.90;;;15.95;80.39;101243.91;5059650;28;20184;-71
2021/10/04 07:00:34;;;;;;;7.80;1.13;;;15.40;99.90;;;15.93;80.72;101251.03;5071063;28;20204;-72
2021/10/04 07:03:02;;;;;;;3.42;1.10;;;15.40;99.90;;;15.90;80.94;101256.47;5061666;28;20263;-70
2021/10/04 07:05:29;;;;;;;3.90;1.17;;;15.30;99.90;;;15.89;81.27;101254.78;5064420;28;20184;-71
2021/10/04 07:07:56;;;;;;;7.15;1.67;;;15.30;99.90;;;15.87;81.46;101240.81;5064372;28;20200;-72
2021/10/04 07:10:24;;;;;;;4.00;1.13;;;15.30;99.90;;;15.89;81.43;101244.22;5080670;28;20277;-70
2021/10/04 07:12:51;;;;;;;7.70;1.83;;;15.20;99.90;;;15.88;81.44;101243.34;5070248;28;20216;-72
2021/10/04 07:15:18;;;;;;;6.55;1.83;;;15.30;99.90;;;15.93;81.54;101251.03;5060811;28;20195;-71
2021/10/04 07:17:45;;;;;;;5.15;1.48;;;15.30;99.90;;;15.95;81.32;101262.38;5065004;28;20251;-71
2021/10/04 07:20:15;;;;;;;3.55;1.10;;;15.30;99.90;;;15.96;81.23;101269.34;5055025;28;20216;-72
2021/10/04 07:22:42;;;;;;;3.90;1.42;;;15.30;99.90;;;15.95;81.55;101275.59;5064897;28;20241;-72
2021/10/04 07:25:12;;;;;;;8.70;2.85;;;15.30;99.90;;;15.94;81.33;101276.53;5062202;28;20927;-72
2021/10/04 07:27:39;;;;;;;11.00;3.47;;;15.30;99.90;;;15.96;81.23;101277.28;5066757;28;20747;-71
2021/10/04 07:30:08;;;;;;;12.95;4.00;;;15.40;99.90;;;15.96;80.90;101266.72;5061639;28;20196;-72
2021/10/04 07:32:35;;;;;;;9.70;3.35;;;15.40;99.90;;;15.96;81.00;101275.50;5072125;28;20553;-72
2021/10/04 07:35:02;;;;;;;6.55;2.22;;;15.40;99.90;;;15.96;80.95;101283.41;5069399;28;20565;-71
2021/10/04 07:37:33;;;;;;;6.57;1.80;;;15.40;99.90;;;15.98;80.99;101280.69;5066131;28;20196;-72
2021/10/04 07:40:04;;;;;;;6.15;1.88;;;15.50;99.90;;;16.00;80.56;101289.41;5071853;28;20185;-73
2021/10/04 07:42:33;;;;;;;5.00;1.65;;;15.50;99.90;;;16.02;80.44;101295.47;5068426;28;20203;-72
2021/10/04 07:45:02;;;;;;;6.22;2.00;;;15.50;99.90;;;16.04;80.42;101307.66;5076815;28;20188;-71
2021/10/04 07:47:29;;;;;;;9.98;2.97;;;15.60;99.90;;;16.05;80.00;101303.22;5076284;28;20189;-70
2021/10/04 07:49:57;;;;;;;10.60;2.22;;;15.60;99.90;;;16.09;79.86;101304.78;5073285;28;20246;-68
2021/10/04 07:52:24;;;;;;;10.15;2.80;;;15.60;99.90;;;16.12;79.69;101288.78;5068190;28;20208;-71
2021/10/04 07:54:54;;;;;;;8.32;2.17;;;15.60;99.90;;;16.17;79.21;101297.34;5077709;28;20192;-70
2021/10/04 07:57:23;;;;;;;6.78;1.52;;;15.70;99.90;;;16.19;78.58;101296.31;5069830;28;20183;-72
2021/10/04 07:59:52;;;;;;;9.00;2.60;;;15.80;99.90;;;16.19;77.89;101298.13;5069723;28;20188;-73
2021/10/04 08:02:19;;;;;;;9.73;2.95;;;15.80;99.90;;;16.20;77.60;101292.75;5078553;28;20223;-72
2021/10/04 08:04:46;;;;;;;15.80;4.60;;;15.80;99.90;;;16.23;76.90;101302.28;5067170;28;20302;-70
2021/10/04 08:07:14;;;;;;;18.30;5.72;;;15.90;99.90;;;16.27;76.46;101314.41;5075256;28;20172;-71
2021/10/04 08:09:45;;;;;;;18.85;5.40;;;16.00;99.90;;;16.33;76.21;101303.53;5074634;28;20181;-71
2021/10/04 08:12:16;;;;;;;18.85;5.38;;;16.00;99.90;;;16.42;76.17;101310.97;5065304;28;20196;-72
2021/10/04 08:14:45;;;;;;;15.55;4.55;;;16.10;99.90;;;16.48;76.04;101312.50;5074684;28;20215;-72
2021/10/04 08:17:15;;;;;;;16.20;4.65;;;16.20;99.90;;;16.52;75.60;101328.09;5069758;28;20173;-73
2021/10/04 08:19:42;;;;;;;11.32;3.55;;;16.20;99.90;;;16.54;76.12;101335.94;5076655;28;20204;-71
2021/10/04 08:22:13;;;;;;;14.63;5.10;;;16.20;99.90;;;16.52;75.70;101338.66;5059205;28;20212;-72
2021/10/04 08:24:40;;;;;;;20.60;7.18;;;16.20;99.90;;;16.50;75.33;101332.59;5066864;28;20200;-73
2021/10/04 08:27:11;;;;;;;16.42;5.65;;;16.20;99.90;;;16.50;75.15;101343.19;5077238;28;20197;-72
2021/10/04 08:29:41;;;;;;;14.25;4.50;;;16.20;99.90;;;16.47;74.60;101340.69;5074303;28;20211;-73
2021/10/04 08:32:16;;;;;;;8.40;2.58;;;16.20;99.90;;;16.41;74.44;101338.31;5071774;28;20204;-71
2021/10/04 08:34:43;;;;;;;8.50;2.72;;;16.20;99.90;;;16.42;74.30;101350.63;5070303;28;20231;-72
2021/10/04 08:37:10;;;;;;;9.80;2.72;;;16.10;99.90;;;16.41;74.48;101340.13;5077109;28;20207;-73
2021/10/04 08:39:39;;;;;;;19.85;6.93;;;16.10;99.90;;;16.39;74.37;101344.63;5080364;28;20177;-73
2021/10/04 08:42:07;;;;;;;11.40;3.80;;;16.10;99.90;;;16.36;74.19;101339.50;5083105;28;20216;-71
2021/10/04 08:44:41;;;;;;;8.80;2.38;;;16.00;99.90;;;16.37;74.30;101351.78;5078266;28;20220;-73
2021/10/04 08:47:08;;;;;;;6.72;2.10;;;16.00;99.90;;;16.34;74.69;101353.63;5073800;28;20188;-72
2021/10/04 08:49:36;;;;;;;5.97;1.70;;;16.00;99.90;;;16.37;75.04;101367.63;5094565;28;20195;-70
2021/10/04 08:52:10;;;;;;;6.15;2.10;;;16.00;99.90;;;16.35;74.73;101373.00;5086677;28;20219;-71
2021/10/04 08:54:37;;;;;;;10.30;3.42;;;16.00;99.90;;;16.33;75.26;101365.16;5094938;28;20211;-70
2021/10/04 08:57:07;;;;;;;8.18;2.55;;;16.00;99.90;;;16.30;74.87;101362.66;5070658;28;20189;-73
2021/10/04 08:59:56;;;;;;;11.40;4.95;;;15.90;99.90;;;16.29;74.66;101366.22;5075458;28;20200;-72
2021/10/04 09:02:31;;;;;;;16.05;5.95;;;15.90;99.90;;;16.28;74.72;101374.22;5074234;28;20224;-72
2021/10/04 09:05:27;;;;;;;7.10;2.28;;;15.90;99.90;;;16.28;74.94;101371.59;5075863;28;20199;-71
2021/10/04 09:07:59;;;;;;;8.10;2.42;;;15.90;99.90;;;16.26;74.77;101371.66;5079387;28;20195;-72
2021/10/04 09:10:28;;;;;;;9.38;1.80;;;15.90;99.90;;;16.24;74.72;101373.53;5074331;28;20204;-72
2021/10/04 09:12:58;;;;;;;5.78;2.03;;;15.80;99.90;;;16.21;75.26;101372.81;5075250;28;20244;-73
2021/10/04 09:15:33;;;;;;;4.10;1.10;;;15.80;99.90;;;16.19;75.33;101362.34;5064688;28;20680;-72
2021/10/04 09:18:05;;;;;;;5.65;2.00;;;15.80;99.90;;;16.16;75.34;101364.28;5073081;28;20226;-73
2021/10/04 09:21:05;;;;;;;5.97;1.70;;;15.80;99.90;;;16.15;75.64;101368.72;5071889;28;20203;-71
2021/10/04 09:23:48;;;;;;;5.43;1.60;;;15.80;99.90;;;16.18;76.01;101370.34;4982688;28;20241;-72
2021/10/04 09:26:36;;;;;;;7.82;1.80;;;15.80;99.90;;;16.22;75.89;101375.41;5056184;28;20627;-73
2021/10/04 09:29:06;;;;;;;9.10;2.15;;;15.80;99.90;;;16.23;75.98;101376.25;5064163;28;20661;-72
2021/10/04 09:31:36;;;;;;;5.13;1.52;;;15.90;99.90;;;16.26;75.58;101373.44;5061962;28;20192;-74
2021/10/04 09:34:10;;;;;;;10.32;3.38;;;15.90;99.90;;;16.28;75.76;101384.78;5056657;28;20213;-73
2021/10/04 09:36:40;;;;;;;7.80;2.15;;;15.90;99.90;;;16.29;75.76;101378.59;5063961;28;20191;-72
2021/10/04 09:39:27;;;;;;;5.82;1.40;;;15.90;99.90;;;16.26;75.60;101371.66;5070354;28;20255;-72
2021/10/04 09:42:10;;;;;;;6.07;1.58;;;16.00;99.90;;;16.28;75.48;101385.66;5070492;28;20208;-71
2021/10/04 09:44:54;;;;;;;7.97;1.40;;;15.90;99.90;;;16.26;75.45;101379.59;5065113;28;20219;-72
2021/10/04 09:47:27;;;;;;;7.32;1.55;;;15.90;99.90;;;16.22;75.22;101393.91;5067358;28;20200;-71
2021/10/04 09:50:04;;;;;;;7.03;1.77;;;15.90;99.90;;;16.19;75.10;101407.25;5074351;28;20204;-73
2021/10/04 09:52:42;;;;;;;6.60;1.40;;;15.90;99.90;;;16.18;75.15;101418.75;5062562;28;20191;-72
2021/10/04 09:55:34;;;;;;;5.97;1.40;;;15.90;99.90;;;16.16;74.51;101423.25;5063824;28;20334;-72
2021/10/04 09:58:17;;;;;;;5.40;1.67;;;15.80;99.90;;;16.16;74.67;101428.53;5068185;28;20197;-71
2021/10/04 10:00:48;;;;;;;6.07;1.95;;;15.80;99.90;;;16.19;74.82;101422.25;5066004;28;20212;-71
2021/10/04 10:03:18;;;;;;;8.15;2.83;;;15.80;99.90;;;16.20;74.37;101423.94;5066411;28;20219;-71
2021/10/04 10:05:52;;;;;;;7.88;1.40;;;15.80;99.90;;;16.23;74.52;101419.38;5062834;28;20228;-72
2021/10/04 10:08:21;;;;;;;3.30;1.30;;;15.90;99.90;;;16.25;74.64;101417.53;5062392;28;20327;-71
2021/10/04 10:10:51;;;;;;;5.90;1.60;;;15.90;99.90;;;16.28;74.63;101408.56;5070177;28;20209;-71
2021/10/04 10:13:21;;;;;;;4.45;1.30;;;15.90;99.90;;;16.27;74.35;101393.66;5064491;28;20239;-72
2021/10/04 10:15:59;;;;;;;7.88;2.35;;;15.90;99.90;;;16.28;74.47;101398.00;5066242;28;20267;-72